APL Norway — A8NC4 — position and weather

sailwx.info

Track history (hours):
 
Tides and Currents Weather Stations Pressure Air Temp Water Temp Dewpoint Dewpoint Depression Visibility Wind Speed Wind Dir Waves Ship Positions

APL Norway

Last reported at 2015-Apr-19 03:24 UTC. Time now 2015-Apr-19 09:28 UTC.
Position N 22°28' E 113°53'.

Length 295 m; draft 10.2 m.

Type: Cargo ship. MMSI: 636013456.

Date/timePositionNaut miles runAvg speedWind from/ knotsBaromVisibWave heightAir tempDewpointWater temp
2015-Apr-19 03:24N 22°28' E 113°53'5 5.7
2015-Apr-19 02:33N 22°23' E 113°54'1110.3
2015-Apr-19 01:32N 22°20' E 114°05'13 9.2
2015-Apr-19 00:09N 22°10' E 114°13'610.5
2015-Apr-18 23:33N 22°09' E 114°20'1010.4
2015-Apr-18 22:33N 21°59' E 114°25'1615.1
2015-Apr-18 21:28N 21°43' E 114°23'  
2015-Apr-15 10:33N 01°16' E 104°07'1514.5
2015-Apr-15 09:31N 01°14' E 103°52'3 3.0
2015-Apr-15 08:32N 01°16' E 103°50'0 0.0
2015-Apr-15 07:33N 01°16' E 103°50'0 0.0
2015-Apr-15 06:33N 01°16' E 103°50'0 0.0
2015-Apr-15 05:33N 01°16' E 103°50'0 0.0
2015-Apr-15 04:33N 01°16' E 103°50'0 0.0
2015-Apr-15 03:33N 01°16' E 103°50'0 0.0
2015-Apr-15 02:32N 01°16' E 103°50'0 0.0
2015-Apr-15 01:33N 01°16' E 103°50'0 0.0
2015-Apr-15 00:32N 01°16' E 103°50'0 0.0
2015-Apr-14 23:32N 01°16' E 103°50'0 0.0
2015-Apr-14 22:32N 01°16' E 103°50'0 0.0
2015-Apr-14 21:33N 01°16' E 103°50'0 0.0
2015-Apr-14 20:33N 01°16' E 103°50'2 2.2
2015-Apr-14 19:33N 01°14' E 103°52'4 3.3
2015-Apr-14 18:14N 01°17' E 103°56'0 0.0
2015-Apr-14 17:11N 01°17' E 103°56'0 0.0
2015-Apr-14 16:08N 01°17' E 103°56'0 0.0
2015-Apr-14 14:32N 01°17' E 103°56'0 0.0
2015-Apr-14 13:32N 01°17' E 103°56'0 0.0
2015-Apr-14 12:32N 01°17' E 103°56'0 0.0
2015-Apr-14 11:32N 01°17' E 103°56'0 0.0
2015-Apr-14 09:32N 01°17' E 103°56'2 2.0
2015-Apr-14 08:33N 01°15' E 103°54'4 3.8
2015-Apr-14 07:31N 01°16' E 103°51'0 0.0
2015-Apr-14 06:27N 01°16' E 103°51'0 0.0
2015-Apr-14 04:32N 01°16' E 103°51'0 0.0
2015-Apr-14 03:32N 01°16' E 103°51'0 0.0
2015-Apr-14 02:17N 01°16' E 103°51'0 0.0
2015-Apr-14 01:33N 01°16' E 103°51'0 0.0
2015-Apr-14 00:23N 01°16' E 103°51'0 0.0
2015-Apr-13 22:32N 01°16' E 103°51'0 0.0
2015-Apr-13 21:32N 01°16' E 103°51'0 0.0
2015-Apr-13 20:32N 01°16' E 103°51'0 0.0
2015-Apr-13 19:32N 01°16' E 103°51'0 0.0
2015-Apr-13 18:32N 01°16' E 103°51'0 0.0
2015-Apr-13 17:17N 01°16' E 103°51'0 0.0
2015-Apr-13 16:32N 01°16' E 103°51'0 0.0
2015-Apr-13 15:27N 01°16' E 103°51'0 0.0
2015-Apr-13 14:32N 01°16' E 103°51'0 0.0
2015-Apr-13 13:33N 01°16' E 103°51'0 0.0
2015-Apr-13 12:32N 01°16' E 103°51'0 0.1
2015-Apr-13 11:33N 01°16' E 103°51'2 1.5
2015-Apr-13 10:33N 01°15' E 103°52'6 6.1
2015-Apr-13 09:33N 01°15' E 103°58'  
Track history (hours):
 
Tides and Currents Weather Stations Pressure Air Temp Water Temp Dewpoint Dewpoint Depression Visibility Wind Speed Wind Dir Waves Ship Positions

APL Norway

Last reported at 2015-Apr-19 03:24 UTC. Time now 2015-Apr-19 09:28 UTC.
Position N 22°28' E 113°53'.

Length 295 m; draft 10.2 m.

Type: Cargo ship. MMSI: 636013456.

Date/timePositionNaut miles runAvg speedWind from/ knotsBaromVisibWave heightAir tempDewpointWater temp
2015-Apr-19 03:24N 22°28' E 113°53'5 5.7
2015-Apr-19 02:33N 22°23' E 113°54'1110.3
2015-Apr-19 01:32N 22°20' E 114°05'13 9.2
2015-Apr-19 00:09N 22°10' E 114°13'610.5
2015-Apr-18 23:33N 22°09' E 114°20'1010.4
2015-Apr-18 22:33N 21°59' E 114°25'1615.1
2015-Apr-18 21:28N 21°43' E 114°23'  
2015-Apr-15 10:33N 01°16' E 104°07'1514.5
2015-Apr-15 09:31N 01°14' E 103°52'3 3.0
2015-Apr-15 08:32N 01°16' E 103°50'0 0.0
2015-Apr-15 07:33N 01°16' E 103°50'0 0.0
2015-Apr-15 06:33N 01°16' E 103°50'0 0.0
2015-Apr-15 05:33N 01°16' E 103°50'0 0.0
2015-Apr-15 04:33N 01°16' E 103°50'0 0.0
2015-Apr-15 03:33N 01°16' E 103°50'0 0.0
2015-Apr-15 02:32N 01°16' E 103°50'0 0.0
2015-Apr-15 01:33N 01°16' E 103°50'0 0.0
2015-Apr-15 00:32N 01°16' E 103°50'0 0.0
2015-Apr-14 23:32N 01°16' E 103°50'0 0.0
2015-Apr-14 22:32N 01°16' E 103°50'0 0.0
2015-Apr-14 21:33N 01°16' E 103°50'0 0.0
2015-Apr-14 20:33N 01°16' E 103°50'2 2.2
2015-Apr-14 19:33N 01°14' E 103°52'4 3.3
2015-Apr-14 18:14N 01°17' E 103°56'0 0.0
2015-Apr-14 17:11N 01°17' E 103°56'0 0.0
2015-Apr-14 16:08N 01°17' E 103°56'0 0.0
2015-Apr-14 14:32N 01°17' E 103°56'0 0.0
2015-Apr-14 13:32N 01°17' E 103°56'0 0.0
2015-Apr-14 12:32N 01°17' E 103°56'0 0.0
2015-Apr-14 11:32N 01°17' E 103°56'0 0.0
2015-Apr-14 09:32N 01°17' E 103°56'2 2.0
2015-Apr-14 08:33N 01°15' E 103°54'4 3.8
2015-Apr-14 07:31N 01°16' E 103°51'0 0.0
2015-Apr-14 06:27N 01°16' E 103°51'0 0.0
2015-Apr-14 04:32N 01°16' E 103°51'0 0.0
2015-Apr-14 03:32N 01°16' E 103°51'0 0.0
2015-Apr-14 02:17N 01°16' E 103°51'0 0.0
2015-Apr-14 01:33N 01°16' E 103°51'0 0.0
2015-Apr-14 00:23N 01°16' E 103°51'0 0.0
2015-Apr-13 22:32N 01°16' E 103°51'0 0.0
2015-Apr-13 21:32N 01°16' E 103°51'0 0.0
2015-Apr-13 20:32N 01°16' E 103°51'0 0.0
2015-Apr-13 19:32N 01°16' E 103°51'0 0.0
2015-Apr-13 18:32N 01°16' E 103°51'0 0.0
2015-Apr-13 17:17N 01°16' E 103°51'0 0.0
2015-Apr-13 16:32N 01°16' E 103°51'0 0.0
2015-Apr-13 15:27N 01°16' E 103°51'0 0.0
2015-Apr-13 14:32N 01°16' E 103°51'0 0.0
2015-Apr-13 13:33N 01°16' E 103°51'0 0.0
2015-Apr-13 12:32N 01°16' E 103°51'0 0.1
2015-Apr-13 11:33N 01°16' E 103°51'2 1.5
2015-Apr-13 10:33N 01°15' E 103°52'6 6.1
2015-Apr-13 09:33N 01°15' E 103°58'  

Dump ship's entire track history